D Hanis, Texas
Current Conditions -  °F | °C
As of 9:51 PM on Friday 24 Oct 2014 (Local Time) from KHDO Reporting Station
Clear Clear  
Wind Chill: 70°   Ceiling: Unl
Heat Index: 70°   Visibility: 10mi
Dew Point: 57°   Wind: 5mph
Humidity: 63%   Direction: 150°SSE
Pressure: 30.15"   Gusts: NA
Location:  29.3507°N, 99.3117°W
Report Text: KHDO 250251Z AUTO 15004KT 10SM CLR 21/14 A3015 RMK AO2 SLP198 T02110139 51017
Loading
Personal Weather Stations






























Interactive Weather Map New forecast layout! Learn more

10-Day Weather Forecast

Advertisements
Track Severe Weather on mobile